Girouxville, Canada
Current Conditions -  °F | °C
As of 2:00 AM on Saturday 25 Oct 2014 (Local Time) from CYPE Reporting Station
Clear Clear  
Wind Chill: -3°   Ceiling: Unl
Heat Index:   Visibility: 15mi
Dew Point: -1°   Wind: 9mph
Humidity: 87%   Direction: 300°WNW
Pressure: 29.95"   Gusts: NA
Location:  55.75°N, 117.33°W
Report Text: CYPE 250800Z 30008KT 15SM SKC 01/M01 A2995 RMK SLP167
Loading
Personal Weather Stations






























Interactive Weather Map
Tropical Storm Tracking
New forecast layout! Learn more

10-Day Weather Forecast

Advertisements
Track Severe Weather on mobile